Time;durP1;ratioP1;P1;durP2;ratioP2;P2;SDS_P1;SDS_P2;PMS_P1;PMS_P2;Temp;Humidity;BMP_temperature;BMP_pressure;BME280_temperature;BME280_humidity;BME280_pressure;Samples;Min_cycle;Max_cycle;Signal;HPM_P1;HPM_P2
2022/02/16 00:08:27;;;;;;;0.20;0.10;;;8.70;99.90;;;;;;25322410;23;20236;-76
2022/02/16 00:18:32;;;;;;;0.20;0.10;;;8.80;99.90;;;;;;25322817;23;20179;-77
2022/02/16 00:28:36;;;;;;;1.47;1.07;;;8.80;99.90;;;;;;25322704;23;20188;-68
2022/02/16 00:38:41;;;;;;;0.20;0.00;;;8.80;99.90;;;;;;25320737;23;20173;-67
2022/02/16 00:48:45;;;;;;;0.77;0.60;;;8.70;99.90;;;;;;25296170;23;20227;-69
2022/02/16 00:58:50;;;;;;;0.20;0.00;;;8.60;99.90;;;;;;25320265;23;20192;-68
2022/02/16 01:08:54;;;;;;;0.20;0.10;;;8.80;99.90;;;;;;25321912;23;20184;-69
2022/02/16 01:18:59;;;;;;;0.20;0.10;;;8.70;99.90;;;;;;25322339;23;20168;-68
2022/02/16 01:29:03;;;;;;;0.20;0.10;;;8.60;99.90;;;;;;25322089;23;20191;-69
2022/02/16 01:39:09;;;;;;;0.20;0.10;;;8.30;99.90;;;;;;25319741;23;20172;-69
2022/02/16 01:49:12;;;;;;;0.20;0.10;;;8.10;99.90;;;;;;25320090;23;20226;-70
2022/02/16 01:59:20;;;;;;;0.20;0.10;;;7.90;99.90;;;;;;25319814;23;20204;-70
2022/02/16 02:09:24;;;;;;;0.20;0.10;;;8.10;99.90;;;;;;25323320;23;20199;-69
2022/02/16 02:19:29;;;;;;;1.23;1.23;;;8.10;99.90;;;;;;25331861;23;20172;-69
2022/02/16 02:29:34;;;;;;;0.20;0.10;;;8.40;99.90;;;;;;25307499;23;20199;-69
2022/02/16 02:39:38;;;;;;;0.20;0.10;;;8.50;99.90;;;;;;25331294;23;20179;-70
2022/02/16 02:49:45;;;;;;;0.20;0.10;;;8.70;99.90;;;;;;25329812;23;20169;-70
2022/02/16 02:59:48;;;;;;;0.20;0.10;;;8.60;99.90;;;;;;25329516;23;20211;-70
2022/02/16 03:09:54;;;;;;;0.20;0.10;;;8.80;99.90;;;;;;25328451;23;20172;-69
2022/02/16 03:19:58;;;;;;;0.20;0.10;;;8.90;99.90;;;;;;25304196;23;20179;-66
2022/02/16 03:30:07;;;;;;;0.20;0.10;;;9.20;99.90;;;;;;25328632;23;20176;-65
2022/02/16 03:40:11;;;;;;;0.20;0.10;;;9.30;99.90;;;;;;25327543;23;20196;-66
2022/02/16 03:50:16;;;;;;;0.20;0.10;;;9.40;99.90;;;;;;25327159;23;20172;-66
2022/02/16 04:00:20;;;;;;;0.20;0.10;;;9.30;99.90;;;;;;25302461;23;20204;-66
2022/02/16 04:10:25;;;;;;;0.20;0.10;;;9.30;99.90;;;;;;25325817;23;20555;-70
2022/02/16 04:20:29;;;;;;;0.20;0.10;;;9.30;99.90;;;;;;25326557;23;20189;-69
2022/02/16 04:30:35;;;;;;;0.20;0.10;;;9.50;99.90;;;;;;25326552;23;20179;-69
2022/02/16 04:40:39;;;;;;;0.20;0.10;;;9.40;99.90;;;;;;25326163;23;20192;-69
2022/02/16 04:50:46;;;;;;;0.20;0.10;;;9.50;99.90;;;;;;25324722;23;20172;-69
2022/02/16 05:00:51;;;;;;;0.20;0.10;;;9.60;99.90;;;;;;25324958;23;20203;-69
2022/02/16 05:10:56;;;;;;;0.20;0.10;;;9.60;99.90;;;;;;25322247;23;20164;-69
2022/02/16 05:21:00;;;;;;;0.20;0.10;;;9.70;99.90;;;;;;25299489;23;20184;-66
2022/02/16 05:31:06;;;;;;;0.20;0.10;;;9.70;99.90;;;;;;25323903;23;20197;-66
2022/02/16 05:41:09;;;;;;;0.20;0.10;;;9.80;99.90;;;;;;25322293;23;20203;-79
2022/02/16 05:51:15;;;;;;;0.20;0.10;;;9.90;99.90;;;;;;25323213;23;20183;-79
2022/02/16 06:01:18;;;;;;;0.20;0.10;;;10.00;99.90;;;;;;25323835;23;20211;-79
2022/02/16 06:11:24;;;;;;;0.20;0.10;;;9.90;99.90;;;;;;25324927;23;20176;-80
2022/02/16 06:21:28;;;;;;;0.20;0.10;;;9.80;99.90;;;;;;25320219;23;20195;-66
2022/02/16 06:31:33;;;;;;;0.20;0.10;;;10.00;99.90;;;;;;25294332;23;20176;-66
2022/02/16 06:41:37;;;;;;;0.20;0.10;;;10.20;99.90;;;;;;25319295;23;20251;-66
2022/02/16 06:51:43;;;;;;;0.40;0.40;;;10.50;99.90;;;;;;25321555;23;20152;-79
2022/02/16 07:01:47;;;;;;;0.20;0.00;;;10.30;99.90;;;;;;25320221;23;20204;-80
2022/02/16 07:11:54;;;;;;;0.20;0.10;;;10.40;99.90;;;;;;25313841;23;20175;-82
2022/02/16 07:21:59;;;;;;;0.20;0.10;;;10.30;99.90;;;;;;25325530;23;20192;-81
2022/02/16 07:32:05;;;;;;;0.20;0.10;;;10.20;99.90;;;;;;25324270;23;20183;-66
2022/02/16 07:42:08;;;;;;;0.20;0.10;;;10.50;99.90;;;;;;25324646;23;20207;-68
2022/02/16 07:52:14;;;;;;;0.20;0.10;;;10.70;99.90;;;;;;25322883;23;20172;-67
2022/02/16 08:02:17;;;;;;;0.20;0.10;;;11.30;99.90;;;;;;25318746;23;20474;-67
2022/02/16 08:12:23;;;;;;;0.20;0.10;;;11.60;99.90;;;;;;25318982;23;20172;-67
2022/02/16 08:22:27;;;;;;;0.20;0.10;;;11.80;99.90;;;;;;25319990;23;20188;-65
2022/02/16 08:32:32;;;;;;;0.20;0.10;;;12.20;99.90;;;;;;25322078;23;20175;-67
2022/02/16 08:42:36;;;;;;;0.20;0.10;;;12.30;99.90;;;;;;25323111;23;20196;-68
2022/02/16 08:52:41;;;;;;;0.20;0.10;;;12.60;99.90;;;;;;25322909;23;20183;-66
2022/02/16 09:02:45;;;;;;;0.20;0.10;;;13.20;99.90;;;;;;25314744;23;20229;-66
2022/02/16 09:12:50;;;;;;;0.20;0.10;;;13.20;99.90;;;;;;25319441;23;20191;-67
2022/02/16 09:22:54;;;;;;;0.20;0.10;;;13.20;99.90;;;;;;25320670;23;20196;-78
2022/02/16 09:33:00;;;;;;;0.20;0.10;;;13.00;99.90;;;;;;25319518;23;20172;-79
2022/02/16 09:43:04;;;;;;;0.20;0.10;;;13.20;99.90;;;;;;25318711;23;20202;-75
2022/02/16 09:53:10;;;;;;;0.20;0.10;;;13.50;99.90;;;;;;25316542;23;20402;-76
2022/02/16 10:03:14;;;;;;;0.20;0.00;;;13.60;99.90;;;;;;25315255;23;20438;-66
2022/02/16 10:13:21;;;;;;;0.20;0.13;;;14.60;99.90;;;;;;25316986;23;20187;-68
2022/02/16 10:23:41;;;;;;;0.20;0.10;;;14.80;99.90;;;;;;25320072;23;20184;-66
2022/02/16 10:33:53;;;;;;;0.20;0.00;;;14.40;99.90;;;;;;25326849;23;20665;-77
2022/02/16 10:43:58;;;;;;;0.20;0.10;;;15.40;99.90;;;;;;25327009;23;20200;-82
2022/02/16 10:54:13;;;;;;;0.20;0.10;;;15.70;99.90;;;;;;25326748;23;20168;-79
2022/02/16 11:04:17;;;;;;;0.20;0.10;;;16.40;99.90;;;;;;25328133;23;20215;-78
2022/02/16 11:14:28;;;;;;;0.20;0.10;;;16.10;99.90;;;;;;25330448;23;20179;-77
2022/02/16 11:24:34;;;;;;;0.20;0.10;;;15.90;99.90;;;;;;25328519;23;20199;-78
2022/02/16 11:34:40;;;;;;;0.20;0.10;;;15.60;99.90;;;;;;25325922;23;20176;-76
2022/02/16 11:45:03;;;;;;;0.20;0.10;;;15.80;99.90;;;;;;25323956;23;20184;-77
2022/02/16 11:55:21;;;;;;;0.20;0.10;;;15.90;99.90;;;;;;25325162;23;20164;-77
2022/02/16 12:05:49;;;;;;;0.20;0.10;;;16.20;99.90;;;;;;25324183;23;20247;-76
2022/02/16 12:16:01;;;;;;;0.20;0.00;;;16.60;99.90;;;;;;25325325;23;20192;-77
2022/02/16 12:26:07;;;;;;;0.20;0.10;;;16.30;99.90;;;;;;25323922;23;20199;-67
2022/02/16 12:36:13;;;;;;;0.20;0.10;;;16.30;99.90;;;;;;25321989;23;20172;-67
2022/02/16 12:46:18;;;;;;;0.83;0.83;;;16.10;99.90;;;;;;25322680;23;20192;-68
2022/02/16 12:56:24;;;;;;;0.67;0.67;;;16.60;99.90;;;;;;25324299;23;20175;-68
2022/02/16 13:06:37;;;;;;;0.20;0.10;;;17.00;99.90;;;;;;25318564;23;20209;-70
2022/02/16 13:16:52;;;;;;;0.20;0.10;;;17.50;99.90;;;;;;25316290;23;20167;-71
2022/02/16 13:27:03;;;;;;;0.20;0.10;;;18.20;99.90;;;;;;25319245;23;20263;-71
2022/02/16 13:37:11;;;;;;;0.20;0.00;;;19.80;99.90;;;;;;25305767;23;20172;-65
2022/02/16 13:47:18;;;;;;;0.20;0.10;;;20.40;99.90;;;;;;25317212;23;20196;-68
2022/02/16 13:57:29;;;;;;;0.20;0.00;;;21.70;99.90;;;;;;25319436;23;20172;-67
2022/02/16 14:07:36;;;;;;;0.20;0.00;;;18.50;99.90;;;;;;25319981;23;20203;-67
2022/02/16 14:17:56;;;;;;;0.20;0.10;;;20.60;99.90;;;;;;25320878;23;20187;-68
2022/02/16 14:28:06;;;;;;;0.20;0.00;;;18.00;99.90;;;;;;25313261;23;20322;-68
2022/02/16 14:38:12;;;;;;;0.50;0.20;;;17.90;99.90;;;;;;25317861;23;20167;-66
2022/02/16 14:48:16;;;;;;;5.10;4.73;;;18.60;99.90;;;;;;25317081;23;20188;-65
2022/02/16 14:58:22;;;;;;;0.20;0.00;;;20.50;99.90;;;;;;25314664;23;20168;-69
2022/02/16 15:08:25;;;;;;;0.20;0.10;;;21.20;99.90;;;;;;25317161;23;20192;-69
2022/02/16 15:18:31;;;;;;;0.20;0.10;;;21.40;99.90;;;;;;25323204;23;20168;-66
2022/02/16 15:28:35;;;;;;;0.20;0.10;;;20.90;99.90;;;;;;25321876;23;20188;-65
2022/02/16 15:38:40;;;;;;;0.20;0.00;;;20.60;99.90;;;;;;25320647;23;20929;-67
2022/02/16 15:48:45;;;;;;;0.20;0.10;;;19.90;99.90;;;;;;25318967;23;20212;-67
2022/02/16 15:58:50;;;;;;;0.20;0.10;;;18.10;99.90;;;;;;25317861;23;20200;-66
2022/02/16 16:08:54;;;;;;;0.20;0.10;;;17.60;99.90;;;;;;25318042;23;20203;-78
2022/02/16 16:19:00;;;;;;;0.20;0.10;;;17.10;99.90;;;;;;25318695;23;20168;-76
2022/02/16 16:29:04;;;;;;;0.20;0.10;;;16.20;99.90;;;;;;25317487;23;20184;-75
2022/02/16 16:39:12;;;;;;;0.20;0.00;;;16.00;99.90;;;;;;25314093;23;20213;-76
2022/02/16 16:49:16;;;;;;;0.20;0.00;;;15.30;99.90;;;;;;25303674;23;20203;-78
2022/02/16 16:59:23;;;;;;;0.20;0.10;;;15.00;99.90;;;;;;25308224;23;20208;-65
2022/02/16 17:09:27;;;;;;;0.20;0.10;;;14.90;99.90;;;;;;25314693;23;20188;-66
2022/02/16 17:19:33;;;;;;;0.20;0.10;;;14.60;99.90;;;;;;25312678;23;20175;-66
2022/02/16 17:29:37;;;;;;;0.20;0.10;;;14.60;99.90;;;;;;25314154;23;20188;-65
2022/02/16 17:39:42;;;;;;;0.20;0.10;;;14.00;99.90;;;;;;25315281;23;20173;-65
2022/02/16 17:49:47;;;;;;;0.20;0.10;;;13.50;99.90;;;;;;25308978;23;20231;-64
2022/02/16 17:59:54;;;;;;;0.20;0.10;;;13.40;99.90;;;;;;25310022;23;20212;-65
2022/02/16 18:09:58;;;;;;;0.20;0.07;;;12.90;99.90;;;;;;25314493;23;20411;-65
2022/02/16 18:20:05;;;;;;;0.20;0.10;;;12.80;99.90;;;;;;25288939;23;20200;-65
2022/02/16 18:30:11;;;;;;;0.20;0.10;;;12.70;99.90;;;;;;25316746;23;20274;-65
2022/02/16 18:40:18;;;;;;;0.20;0.10;;;12.60;99.90;;;;;;25290121;23;20231;-65
2022/02/16 18:50:22;;;;;;;0.20;0.10;;;12.60;99.90;;;;;;25320653;23;20180;-64
2022/02/16 19:00:28;;;;;;;0.20;0.10;;;12.50;99.90;;;;;;25322372;23;20203;-66
2022/02/16 19:10:34;;;;;;;0.23;0.23;;;12.40;99.90;;;;;;25296012;23;20183;-66
2022/02/16 19:20:41;;;;;;;0.20;0.10;;;11.90;99.90;;;;;;25323316;23;20235;-66
2022/02/16 19:30:45;;;;;;;0.20;0.10;;;11.90;99.90;;;;;;25322890;23;20188;-66
2022/02/16 19:40:54;;;;;;;0.20;0.10;;;11.60;99.90;;;;;;25322192;23;20304;-65
2022/02/16 19:50:58;;;;;;;0.20;0.10;;;11.60;99.90;;;;;;25295671;23;20230;-79
2022/02/16 20:01:03;;;;;;;0.20;0.10;;;11.80;99.90;;;;;;25318887;23;20203;-78
2022/02/16 20:11:08;;;;;;;0.20;0.10;;;11.90;99.90;;;;;;25322786;23;20188;-78
2022/02/16 20:21:14;;;;;;;0.20;0.10;;;11.60;99.90;;;;;;25323319;23;20172;-82
2022/02/16 20:31:18;;;;;;;0.20;0.10;;;11.60;99.90;;;;;;25320794;23;20211;-83
2022/02/16 20:41:24;;;;;;;0.20;0.10;;;11.60;99.90;;;;;;25323731;23;20245;-79
2022/02/16 20:51:28;;;;;;;0.20;0.10;;;11.80;99.90;;;;;;25323585;23;20184;-77
2022/02/16 21:01:33;;;;;;;0.20;0.10;;;11.70;99.90;;;;;;25322212;23;20202;-66
2022/02/16 21:11:37;;;;;;;0.20;0.10;;;11.40;99.90;;;;;;25316540;23;20248;-66
2022/02/16 21:21:44;;;;;;;0.20;0.17;;;11.30;99.90;;;;;;25296889;23;20175;-66
2022/02/16 21:31:48;;;;;;;0.20;0.10;;;10.60;99.90;;;;;;25321299;23;20184;-65
2022/02/16 21:41:53;;;;;;;0.20;0.10;;;10.80;99.90;;;;;;25322330;23;20203;-65
2022/02/16 21:51:57;;;;;;;1.07;1.07;;;10.50;99.90;;;;;;25322547;23;20300;-67
2022/02/16 22:02:05;;;;;;;0.20;0.10;;;10.70;99.90;;;;;;25320352;23;20192;-66
2022/02/16 22:22:28;;;;;;;0.20;0.10;;;11.00;99.90;;;;;;25327811;23;20179;-65
2022/02/16 22:32:32;;;;;;;1.80;1.70;;;10.90;99.90;;;;;;25330294;23;20199;-66
2022/02/16 22:42:38;;;;;;;0.20;0.10;;;11.10;99.90;;;;;;25330427;23;20199;-66
2022/02/16 22:52:42;;;;;;;0.20;0.00;;;10.80;99.90;;;;;;25331112;23;20207;-65
2022/02/16 23:13:18;;;;;;;0.20;0.10;;;10.70;99.90;;;;;;25329244;23;20192;-67
2022/02/16 23:23:23;;;;;;;0.20;0.10;;;11.00;99.90;;;;;;25330991;23;20171;-68
2022/02/16 23:33:27;;;;;;;0.20;0.10;;;11.10;99.90;;;;;;25330574;23;20175;-67
2022/02/16 23:43:32;;;;;;;0.20;0.10;;;11.20;99.90;;;;;;25330987;23;20188;-68
2022/02/16 23:53:37;;;;;;;0.20;0.10;;;11.50;99.90;;;;;;25329333;23;20184;-69
